Sacramento, California
Traffic Map
Current Weather Conditions
Sacramento, California
Clear
Clear
54°
Feels Like: 54°
Wind Chill: 54° Ceiling: Unl
Heat Index: 54° Visibility: 10mi
Dew Point: 52° Wind: 8mph
Humidity: 93% Direction: 180° (S)
Pressure: 29.81in Gusts: 0mph
Raw Report DataKSAC 220953Z AUTO 18007KT 10SM CLR 12/11 A2981 RMK AO2 SLP093 T01220111
Traffic Incident Summary
Active as of:
Severity:
Category:
InformationThere was an issue retrieving the traffic information for this location. Please try a different location or try again shortly.
Advertisements